Time;durP1;ratioP1;P1;durP2;ratioP2;P2;SDS_P1;SDS_P2;PMS_P1;PMS_P2;Temp;Humidity;BMP_temperature;BMP_pressure;BME280_temperature;BME280_humidity;BME280_pressure;Samples;Min_cycle;Max_cycle;Signal;HPM_P1;HPM_P2
2023/05/14 00:02:09;;;;;;;1.20;1.20;;;14.50;74.30;;;;;;5036126;28;20176;-80
2023/05/14 00:04:35;;;;;;;1.38;1.27;;;14.50;73.80;;;;;;5032451;28;20234;-80
2023/05/14 00:07:01;;;;;;;1.05;0.98;;;14.50;74.60;;;;;;5030212;28;20196;-79
2023/05/14 00:09:29;;;;;;;1.10;1.10;;;14.50;73.80;;;;;;5041183;28;20184;-79
2023/05/14 00:11:54;;;;;;;1.42;1.20;;;14.50;73.60;;;;;;5029210;28;20255;-79
2023/05/14 00:14:20;;;;;;;1.40;1.33;;;14.50;73.90;;;;;;5029412;28;20195;-78
2023/05/14 00:16:46;;;;;;;1.45;1.40;;;14.60;74.00;;;;;;5023334;28;20195;-79
2023/05/14 00:19:11;;;;;;;1.05;1.05;;;14.50;74.10;;;;;;5029841;28;20776;-80
2023/05/14 00:21:37;;;;;;;1.40;1.30;;;14.50;74.10;;;;;;5029783;28;20216;-79
2023/05/14 00:24:03;;;;;;;1.25;1.23;;;14.50;74.20;;;;;;5036734;28;20187;-79
2023/05/14 00:26:29;;;;;;;1.02;1.02;;;14.50;74.40;;;;;;5028383;28;20335;-79
2023/05/14 00:28:54;;;;;;;2.90;1.10;;;14.50;74.10;;;;;;5028834;28;20271;-79
2023/05/14 00:31:20;;;;;;;1.50;1.40;;;14.40;74.20;;;;;;5029386;28;20685;-79
2023/05/14 00:33:45;;;;;;;1.20;1.15;;;14.50;74.20;;;;;;5034914;28;20271;-78
2023/05/14 00:36:11;;;;;;;3.72;1.10;;;14.40;74.20;;;;;;5031830;28;20621;-81
2023/05/14 00:38:37;;;;;;;1.60;0.90;;;14.50;74.20;;;;;;5038821;28;20196;-79
2023/05/14 00:41:03;;;;;;;1.42;1.30;;;14.50;74.00;;;;;;5036291;28;20192;-79
2023/05/14 00:43:29;;;;;;;1.05;1.05;;;14.50;74.30;;;;;;5035897;28;20266;-79
2023/05/14 00:45:55;;;;;;;1.17;1.13;;;14.40;74.40;;;;;;5028002;28;20655;-79
2023/05/14 00:48:21;;;;;;;1.95;1.38;;;14.40;74.10;;;;;;5036344;28;20198;-79
2023/05/14 00:50:49;;;;;;;1.00;1.00;;;14.40;73.80;;;;;;5028313;28;20689;-80
2023/05/14 00:53:16;;;;;;;1.00;1.00;;;14.40;73.80;;;;;;5023852;28;20268;-80
2023/05/14 00:55:42;;;;;;;1.10;1.10;;;14.40;73.60;;;;;;5034113;28;20582;-81
2023/05/14 00:58:12;;;;;;;2.45;1.10;;;14.40;73.80;;;;;;5031192;28;20181;-79
2023/05/14 01:00:39;;;;;;;0.95;0.95;;;14.40;73.80;;;;;;5026835;28;20226;-80
2023/05/14 01:03:06;;;;;;;1.00;1.00;;;14.40;73.80;;;;;;5029073;28;20238;-81
2023/05/14 01:05:59;;;;;;;1.83;1.17;;;14.30;74.00;;;;;;5028849;28;20210;-80
2023/05/14 01:09:02;;;;;;;0.93;0.93;;;14.30;73.70;;;;;;5028577;28;20992;-80
2023/05/14 01:11:39;;;;;;;1.10;1.10;;;14.30;73.70;;;;;;5019988;28;20192;-81
2023/05/14 01:14:27;;;;;;;0.80;0.80;;;14.30;73.50;;;;;;5031781;28;21306;-80
2023/05/14 01:16:58;;;;;;;1.10;1.10;;;14.30;73.10;;;;;;5024401;28;20200;-80
2023/05/14 01:19:36;;;;;;;1.33;1.27;;;14.30;73.40;;;;;;5027986;28;20896;-80
2023/05/14 01:22:02;;;;;;;0.80;0.80;;;14.30;73.20;;;;;;5029153;28;20199;-80
2023/05/14 01:24:27;;;;;;;1.00;1.00;;;14.30;73.20;;;;;;5037256;28;20545;-80
2023/05/14 01:27:18;;;;;;;0.90;0.90;;;14.30;73.20;;;;;;5037713;28;20263;-80
2023/05/14 01:29:55;;;;;;;2.20;1.00;;;14.30;73.20;;;;;;5015643;28;20231;-80
2023/05/14 01:32:23;;;;;;;0.93;0.93;;;14.30;73.40;;;;;;5027998;28;20213;-80
2023/05/14 01:34:51;;;;;;;1.17;1.17;;;14.30;73.50;;;;;;5058765;28;20574;-81
2023/05/14 01:37:17;;;;;;;1.48;1.48;;;14.30;73.70;;;;;;5028136;28;20188;-80
2023/05/14 01:39:44;;;;;;;1.20;1.10;;;14.30;73.50;;;;;;5026174;28;20218;-80
2023/05/14 01:42:09;;;;;;;1.55;1.05;;;14.30;73.60;;;;;;5025314;28;20189;-80
2023/05/14 01:44:35;;;;;;;2.65;1.17;;;14.30;73.90;;;;;;5025878;28;20826;-80
2023/05/14 01:47:01;;;;;;;0.60;0.60;;;14.30;73.60;;;;;;5028133;28;20180;-80
2023/05/14 01:49:26;;;;;;;1.35;1.27;;;14.30;73.90;;;;;;5028916;28;20562;-80
2023/05/14 01:51:52;;;;;;;1.10;1.10;;;14.30;74.10;;;;;;5027325;28;20191;-81
2023/05/14 01:54:18;;;;;;;0.90;0.90;;;14.20;74.10;;;;;;5028158;28;20643;-80
2023/05/14 01:56:43;;;;;;;1.08;0.98;;;14.20;74.50;;;;;;5027343;28;20177;-80
2023/05/14 01:59:09;;;;;;;1.33;1.27;;;14.20;74.30;;;;;;5031276;28;20766;-80
2023/05/14 02:01:34;;;;;;;1.42;1.33;;;14.20;73.70;;;;;;5030572;28;20574;-79
2023/05/14 02:04:00;;;;;;;0.73;0.73;;;14.10;73.80;;;;;;5027696;28;20271;-80
2023/05/14 02:06:26;;;;;;;1.38;0.90;;;14.00;74.10;;;;;;5028358;28;20654;-80
2023/05/14 02:08:52;;;;;;;0.90;0.90;;;14.00;74.10;;;;;;5028424;28;20176;-80
2023/05/14 02:11:17;;;;;;;0.90;0.90;;;14.00;74.00;;;;;;5028288;28;20203;-79
2023/05/14 02:13:43;;;;;;;0.75;0.75;;;14.00;74.50;;;;;;5032163;28;20172;-79
2023/05/14 02:16:08;;;;;;;2.15;0.80;;;13.90;74.90;;;;;;5031123;28;20168;-80
2023/05/14 02:18:34;;;;;;;1.00;1.00;;;13.90;74.80;;;;;;5023528;28;20180;-79
2023/05/14 02:21:00;;;;;;;0.80;0.80;;;13.90;74.90;;;;;;5038081;28;20757;-79
2023/05/14 02:23:25;;;;;;;0.90;0.90;;;13.90;74.50;;;;;;5043618;28;20187;-80
2023/05/14 02:25:51;;;;;;;0.90;0.90;;;13.90;74.60;;;;;;5032734;28;20184;-79
2023/05/14 02:28:16;;;;;;;0.80;0.80;;;13.90;74.80;;;;;;5032919;28;20184;-79
2023/05/14 02:30:42;;;;;;;0.70;0.70;;;13.80;75.40;;;;;;5030792;28;20180;-79
2023/05/14 02:33:08;;;;;;;0.88;0.88;;;13.80;75.00;;;;;;5033720;28;20307;-79
2023/05/14 02:35:33;;;;;;;0.90;0.90;;;13.70;75.60;;;;;;5034043;28;20658;-79
2023/05/14 02:37:59;;;;;;;0.90;0.90;;;13.60;75.50;;;;;;5032882;28;20199;-80
2023/05/14 02:40:25;;;;;;;1.00;1.00;;;13.60;75.90;;;;;;5032866;28;20279;-80
2023/05/14 02:42:50;;;;;;;0.80;0.80;;;13.60;76.00;;;;;;5031274;28;20188;-80
2023/05/14 02:45:16;;;;;;;1.05;1.05;;;13.50;76.70;;;;;;5042238;28;20203;-80
2023/05/14 02:47:42;;;;;;;3.70;0.90;;;13.50;75.80;;;;;;5031668;28;20238;-80
2023/05/14 02:50:08;;;;;;;1.70;1.25;;;13.50;75.90;;;;;;5029273;28;20219;-80
2023/05/14 02:52:34;;;;;;;0.80;0.80;;;13.50;75.70;;;;;;5036727;28;20184;-79
2023/05/14 02:55:00;;;;;;;1.55;0.90;;;13.50;75.60;;;;;;5029680;28;20176;-79
2023/05/14 02:57:26;;;;;;;1.35;1.15;;;13.50;75.30;;;;;;5032174;28;20264;-80
2023/05/14 02:59:52;;;;;;;0.80;0.80;;;13.50;75.20;;;;;;5032310;28;20324;-80
2023/05/14 03:02:17;;;;;;;0.88;0.88;;;13.50;75.00;;;;;;5037658;28;20299;-80
2023/05/14 03:04:43;;;;;;;1.00;0.90;;;13.50;75.40;;;;;;5028881;28;20176;-80
2023/05/14 03:07:09;;;;;;;1.00;1.00;;;13.50;75.30;;;;;;5032030;28;20319;-79
2023/05/14 03:09:34;;;;;;;0.90;0.90;;;13.50;75.40;;;;;;5041116;28;20677;-80
2023/05/14 03:12:00;;;;;;;1.20;1.10;;;13.50;75.50;;;;;;5037330;28;20633;-79
2023/05/14 03:14:26;;;;;;;0.80;0.80;;;13.50;75.50;;;;;;5040118;28;20180;-80
2023/05/14 03:16:51;;;;;;;0.75;0.75;;;13.50;75.80;;;;;;5039315;28;20206;-79
2023/05/14 03:19:17;;;;;;;0.90;0.90;;;13.50;76.20;;;;;;5031712;28;20212;-80
2023/05/14 03:21:43;;;;;;;0.70;0.70;;;13.40;76.00;;;;;;5039275;28;20188;-81
2023/05/14 03:24:09;;;;;;;0.85;0.85;;;13.40;75.90;;;;;;5036610;28;20555;-81
2023/05/14 03:26:34;;;;;;;0.80;0.80;;;13.40;76.70;;;;;;5035022;28;20187;-81
2023/05/14 03:29:01;;;;;;;1.00;1.00;;;13.40;76.60;;;;;;5032681;28;20219;-79
2023/05/14 03:31:26;;;;;;;1.10;1.10;;;13.30;76.90;;;;;;5031310;28;20176;-79
2023/05/14 03:33:52;;;;;;;0.70;0.70;;;13.30;77.50;;;;;;5036382;28;20542;-79
2023/05/14 03:36:17;;;;;;;0.85;0.85;;;13.30;78.50;;;;;;5038288;28;20260;-81
2023/05/14 03:38:43;;;;;;;0.80;0.80;;;13.20;78.10;;;;;;5036023;28;20591;-78
2023/05/14 03:41:09;;;;;;;0.80;0.80;;;13.20;79.20;;;;;;5029623;28;20180;-78
2023/05/14 03:43:35;;;;;;;4.18;1.00;;;13.10;79.50;;;;;;5029631;28;20951;-79
2023/05/14 03:46:00;;;;;;;0.70;0.70;;;13.00;80.60;;;;;;5031139;28;20184;-78
2023/05/14 03:48:26;;;;;;;0.88;0.88;;;12.90;80.10;;;;;;5030831;28;20208;-78
2023/05/14 03:50:51;;;;;;;0.85;0.85;;;12.90;80.90;;;;;;5030987;28;20181;-79
2023/05/14 03:53:17;;;;;;;0.88;0.88;;;12.90;81.00;;;;;;5030565;28;20246;-79
2023/05/14 03:55:43;;;;;;;0.77;0.77;;;12.80;80.10;;;;;;5029546;28;20675;-79
2023/05/14 03:58:12;;;;;;;2.72;0.85;;;12.80;80.40;;;;;;5033749;28;20180;-79
2023/05/14 04:00:42;;;;;;;0.70;0.70;;;12.70;79.90;;;;;;5030789;28;20299;-79
2023/05/14 04:03:07;;;;;;;3.17;1.10;;;12.70;79.70;;;;;;5030489;28;20176;-79
2023/05/14 04:05:34;;;;;;;5.38;0.80;;;12.70;80.40;;;;;;5030279;28;20725;-79
2023/05/14 04:08:00;;;;;;;0.75;0.75;;;12.70;80.30;;;;;;5030550;28;20928;-79
2023/05/14 04:10:26;;;;;;;0.73;0.73;;;12.70;80.20;;;;;;5030594;28;20238;-79
2023/05/14 04:12:52;;;;;;;0.90;0.90;;;12.70;81.00;;;;;;5030407;28;20180;-78
2023/05/14 04:15:17;;;;;;;0.70;0.70;;;12.70;80.20;;;;;;5029784;28;20168;-78
2023/05/14 04:17:43;;;;;;;0.80;0.80;;;12.70;80.30;;;;;;5029111;28;20172;-79
2023/05/14 04:20:09;;;;;;;0.70;0.70;;;12.80;79.40;;;;;;5025846;28;20707;-79
2023/05/14 04:22:35;;;;;;;0.80;0.80;;;12.80;79.40;;;;;;5027085;28;20200;-78
2023/05/14 04:25:00;;;;;;;0.90;0.90;;;12.80;78.90;;;;;;5030690;28;20574;-79
2023/05/14 04:27:27;;;;;;;0.88;0.88;;;12.90;78.80;;;;;;5031148;28;20246;-80
2023/05/14 04:29:53;;;;;;;0.90;0.90;;;12.80;79.20;;;;;;5030584;28;20180;-80
2023/05/14 04:32:19;;;;;;;1.08;1.00;;;12.80;79.20;;;;;;5028757;28;20238;-79
2023/05/14 04:34:46;;;;;;;1.75;0.98;;;12.80;79.20;;;;;;5039211;28;20680;-79
2023/05/14 04:37:11;;;;;;;0.90;0.90;;;12.80;78.80;;;;;;5029491;28;20177;-79
2023/05/14 04:39:37;;;;;;;0.77;0.77;;;12.90;78.80;;;;;;5029636;28;20282;-80
2023/05/14 04:42:03;;;;;;;0.88;0.88;;;12.90;78.70;;;;;;5031230;28;20191;-80
2023/05/14 04:44:29;;;;;;;0.70;0.70;;;12.90;79.30;;;;;;5029908;28;20176;-80
2023/05/14 04:46:55;;;;;;;0.70;0.70;;;12.90;79.70;;;;;;5029064;28;20815;-80
2023/05/14 04:49:20;;;;;;;0.70;0.70;;;12.90;79.90;;;;;;5032690;28;20199;-80
2023/05/14 04:51:47;;;;;;;0.90;0.90;;;12.90;80.10;;;;;;5030911;28;20187;-80
2023/05/14 04:54:12;;;;;;;0.70;0.70;;;12.90;80.60;;;;;;5029978;28;20192;-79
2023/05/14 04:56:38;;;;;;;0.70;0.70;;;12.90;80.90;;;;;;5029012;28;20211;-79
2023/05/14 04:59:04;;;;;;;3.20;0.80;;;12.90;80.90;;;;;;5029258;28;20690;-79
2023/05/14 05:01:30;;;;;;;0.85;0.85;;;12.90;81.40;;;;;;5034890;28;20184;-80
2023/05/14 05:03:56;;;;;;;0.60;0.60;;;12.90;80.50;;;;;;5029601;28;20184;-80
2023/05/14 05:06:22;;;;;;;0.90;0.90;;;12.80;81.50;;;;;;5028073;28;20180;-80
2023/05/14 05:08:48;;;;;;;0.75;0.75;;;12.70;82.40;;;;;;5029654;28;20350;-79
2023/05/14 05:11:13;;;;;;;0.80;0.80;;;12.70;83.00;;;;;;5027991;28;20180;-80
2023/05/14 05:13:39;;;;;;;0.85;0.85;;;12.60;83.70;;;;;;5028618;28;20180;-79
2023/05/14 05:16:05;;;;;;;1.33;1.00;;;12.60;84.20;;;;;;5029035;28;20172;-79
2023/05/14 05:18:31;;;;;;;0.80;0.80;;;12.60;84.80;;;;;;5029277;28;20584;-80
2023/05/14 05:20:57;;;;;;;1.05;1.05;;;12.50;85.50;;;;;;5029136;28;20216;-79
2023/05/14 05:23:22;;;;;;;0.70;0.70;;;12.50;85.50;;;;;;5029279;28;20199;-79
2023/05/14 05:25:49;;;;;;;0.70;0.70;;;12.50;85.30;;;;;;5029194;28;20180;-79
2023/05/14 05:28:15;;;;;;;2.95;1.15;;;12.50;86.10;;;;;;5029039;28;20172;-79
2023/05/14 05:30:40;;;;;;;1.30;1.23;;;12.40;87.60;;;;;;5031783;28;20623;-79
2023/05/14 05:33:06;;;;;;;0.88;0.82;;;12.30;87.50;;;;;;5032204;28;20179;-79
2023/05/14 05:35:32;;;;;;;1.10;1.02;;;12.30;88.00;;;;;;5022820;28;20187;-80
2023/05/14 05:37:57;;;;;;;1.17;1.05;;;12.30;89.10;;;;;;5030446;28;20621;-80
2023/05/14 05:40:23;;;;;;;1.10;1.10;;;12.20;88.80;;;;;;5028540;28;20623;-79
2023/05/14 05:42:49;;;;;;;4.22;1.13;;;12.10;89.60;;;;;;5025975;28;21108;-79
2023/05/14 05:45:14;;;;;;;1.35;1.10;;;12.10;89.80;;;;;;5027139;28;20179;-79
2023/05/14 05:47:40;;;;;;;1.40;0.90;;;12.10;89.30;;;;;;5027651;28;20185;-79
2023/05/14 05:50:06;;;;;;;2.17;1.10;;;12.10;89.10;;;;;;5027116;28;20184;-79
2023/05/14 05:52:32;;;;;;;0.98;0.98;;;12.10;88.80;;;;;;5022376;28;20873;-79
2023/05/14 05:54:58;;;;;;;1.42;1.17;;;12.00;89.60;;;;;;5025599;28;20275;-80
2023/05/14 05:57:25;;;;;;;1.13;1.05;;;12.00;89.80;;;;;;5024851;28;20184;-80
2023/05/14 05:59:51;;;;;;;1.75;1.27;;;12.00;89.50;;;;;;5024404;28;20216;-79
2023/05/14 06:02:18;;;;;;;0.90;0.90;;;12.00;89.50;;;;;;5023386;28;20191;-79
2023/05/14 06:04:44;;;;;;;0.90;0.90;;;11.90;90.70;;;;;;5027584;28;20242;-80
2023/05/14 06:07:09;;;;;;;1.63;1.40;;;11.80;90.60;;;;;;5030964;28;20188;-79
2023/05/14 06:09:35;;;;;;;1.20;1.20;;;11.80;91.30;;;;;;5027187;28;20676;-79
2023/05/14 06:12:00;;;;;;;1.95;0.95;;;11.70;91.30;;;;;;5030581;28;20682;-79
2023/05/14 06:14:26;;;;;;;1.38;1.23;;;11.70;91.50;;;;;;5026740;28;20180;-83
2023/05/14 06:16:52;;;;;;;1.20;1.20;;;11.60;90.90;;;;;;5032450;28;20191;-79
2023/05/14 06:19:18;;;;;;;3.42;1.42;;;11.60;91.20;;;;;;5028041;28;20227;-80
2023/05/14 06:21:43;;;;;;;1.48;1.13;;;11.70;91.30;;;;;;5028104;28;20184;-82
2023/05/14 06:24:09;;;;;;;0.98;0.98;;;11.60;93.10;;;;;;5027072;28;20180;-78
2023/05/14 06:26:35;;;;;;;1.00;1.00;;;11.50;93.40;;;;;;5027732;28;20921;-78
2023/05/14 06:29:01;;;;;;;1.58;1.58;;;11.40;95.30;;;;;;5027204;28;20185;-78
2023/05/14 06:31:26;;;;;;;1.25;1.25;;;11.40;95.80;;;;;;5027648;28;20306;-78
2023/05/14 06:33:52;;;;;;;1.15;1.15;;;11.30;95.50;;;;;;5027605;28;20646;-78
2023/05/14 06:36:17;;;;;;;1.38;1.38;;;11.30;95.20;;;;;;5027155;28;20188;-79
2023/05/14 06:38:43;;;;;;;1.27;1.17;;;11.30;94.50;;;;;;5029530;28;20283;-79
2023/05/14 06:41:09;;;;;;;1.20;1.20;;;11.20;94.30;;;;;;5028157;28;20195;-78
2023/05/14 06:43:34;;;;;;;1.45;1.35;;;11.20;94.10;;;;;;5028353;28;20268;-78
2023/05/14 06:46:00;;;;;;;1.02;0.93;;;11.10;94.80;;;;;;5026472;28;20640;-79
2023/05/14 06:48:28;;;;;;;1.08;1.08;;;11.10;95.40;;;;;;5026118;28;20187;-78
2023/05/14 06:50:54;;;;;;;2.30;1.13;;;11.00;96.30;;;;;;5026769;28;20271;-79
2023/05/14 06:53:20;;;;;;;1.17;1.17;;;11.00;96.10;;;;;;5025648;28;20994;-79
2023/05/14 06:55:48;;;;;;;1.30;1.30;;;11.00;96.60;;;;;;5027606;28;20267;-79
2023/05/14 06:58:14;;;;;;;1.13;1.13;;;11.00;96.40;;;;;;5029513;28;20188;-78
2023/05/14 07:00:40;;;;;;;1.13;1.05;;;11.00;95.90;;;;;;5034505;28;20829;-78
2023/05/14 07:03:05;;;;;;;1.20;1.20;;;11.10;96.10;;;;;;5031349;28;20933;-79
2023/05/14 07:05:31;;;;;;;1.52;1.50;;;11.20;96.70;;;;;;5030442;28;20180;-79
2023/05/14 07:07:57;;;;;;;1.40;1.30;;;11.20;96.90;;;;;;5026908;28;22129;-78
2023/05/14 07:10:23;;;;;;;1.05;1.05;;;11.30;96.50;;;;;;5026150;28;20192;-78
2023/05/14 07:12:49;;;;;;;1.25;1.25;;;11.40;96.90;;;;;;5031669;28;20227;-78
2023/05/14 07:15:15;;;;;;;2.80;1.15;;;11.50;96.80;;;;;;5031508;28;20188;-80
2023/05/14 07:17:40;;;;;;;1.77;1.50;;;11.60;97.20;;;;;;5027248;28;20197;-79
2023/05/14 07:20:06;;;;;;;2.35;1.33;;;11.70;96.70;;;;;;5026202;28;20243;-79
2023/05/14 07:22:32;;;;;;;1.27;1.27;;;11.80;95.50;;;;;;5023913;28;20195;-78
2023/05/14 07:24:58;;;;;;;3.38;1.60;;;11.90;95.10;;;;;;5029997;28;20192;-79
2023/05/14 07:27:23;;;;;;;1.65;1.65;;;12.00;95.10;;;;;;5030357;28;20238;-77
2023/05/14 07:29:49;;;;;;;2.08;1.52;;;12.00;94.30;;;;;;5029514;28;20185;-77
2023/05/14 07:32:15;;;;;;;1.95;1.65;;;12.10;94.50;;;;;;5030838;28;20184;-77
2023/05/14 07:34:41;;;;;;;1.67;1.58;;;12.10;94.70;;;;;;5028059;28;20654;-77
2023/05/14 07:37:07;;;;;;;1.73;1.48;;;12.10;94.30;;;;;;5030986;28;20259;-78
2023/05/14 07:39:33;;;;;;;1.70;1.63;;;12.10;94.70;;;;;;5031000;28;20279;-79
2023/05/14 07:41:59;;;;;;;1.42;1.42;;;12.10;94.90;;;;;;5029344;28;20231;-76
2023/05/14 07:44:25;;;;;;;2.00;1.90;;;12.10;94.50;;;;;;5027259;28;20200;-78
2023/05/14 07:46:51;;;;;;;1.77;1.73;;;12.10;93.80;;;;;;5027077;28;20658;-78
2023/05/14 07:49:17;;;;;;;1.70;1.60;;;12.20;93.60;;;;;;5026231;28;20196;-77
2023/05/14 07:51:42;;;;;;;1.75;1.65;;;12.20;94.00;;;;;;5029545;28;20173;-77
2023/05/14 07:54:08;;;;;;;4.20;2.10;;;12.20;94.60;;;;;;5029913;28;20275;-79
2023/05/14 07:56:33;;;;;;;1.65;1.40;;;12.20;94.30;;;;;;5027427;28;20176;-78
2023/05/14 07:58:59;;;;;;;1.40;1.40;;;12.20;94.30;;;;;;5029327;28;20181;-77
2023/05/14 08:01:25;;;;;;;3.15;1.65;;;12.30;94.20;;;;;;5029330;28;20321;-77
2023/05/14 08:03:51;;;;;;;2.15;1.17;;;12.20;94.50;;;;;;5028948;28;20214;-78
2023/05/14 08:06:16;;;;;;;1.48;1.48;;;12.20;94.60;;;;;;5029060;28;20176;-78
2023/05/14 08:08:42;;;;;;;1.60;1.52;;;12.20;94.50;;;;;;5030698;28;20263;-79
2023/05/14 08:11:08;;;;;;;1.20;1.20;;;12.20;94.80;;;;;;5030157;28;20281;-76
2023/05/14 08:13:33;;;;;;;2.25;1.40;;;12.20;95.10;;;;;;5030351;28;20180;-76
2023/05/14 08:15:59;;;;;;;1.55;1.45;;;12.20;95.40;;;;;;5029149;28;20686;-77
2023/05/14 08:18:25;;;;;;;1.40;1.40;;;12.30;94.60;;;;;;5029364;28;20214;-77
2023/05/14 08:20:50;;;;;;;1.38;1.38;;;12.30;94.60;;;;;;5029404;28;20307;-76
2023/05/14 08:23:16;;;;;;;1.50;1.40;;;12.30;94.50;;;;;;5029667;28;20193;-77
2023/05/14 08:25:42;;;;;;;2.25;1.38;;;12.30;95.10;;;;;;5028424;28;20630;-78
2023/05/14 08:28:07;;;;;;;1.70;1.60;;;12.30;94.40;;;;;;5029585;28;20176;-77
2023/05/14 08:30:33;;;;;;;1.40;1.40;;;12.30;94.30;;;;;;5031770;28;20187;-77
2023/05/14 08:32:59;;;;;;;1.55;1.45;;;12.30;95.40;;;;;;5033818;28;20176;-79
2023/05/14 08:35:25;;;;;;;1.45;1.45;;;12.40;95.60;;;;;;5036885;28;20249;-78
2023/05/14 08:37:51;;;;;;;1.65;1.55;;;12.50;95.70;;;;;;5034015;28;20203;-78
2023/05/14 08:40:17;;;;;;;2.28;1.50;;;12.60;94.60;;;;;;5036894;28;20207;-79
2023/05/14 08:42:43;;;;;;;1.52;1.42;;;12.60;94.50;;;;;;5034913;28;20195;-78
2023/05/14 08:45:19;;;;;;;1.83;1.70;;;12.60;94.30;;;;;;5037544;28;20571;-78
2023/05/14 08:47:49;;;;;;;1.92;1.88;;;12.70;94.40;;;;;;5033474;28;20187;-78
2023/05/14 08:50:17;;;;;;;1.55;1.55;;;12.70;94.30;;;;;;5030791;28;20259;-77
2023/05/14 08:52:43;;;;;;;3.17;2.00;;;12.70;93.90;;;;;;5030890;28;21439;-78
2023/05/14 08:55:11;;;;;;;1.60;1.60;;;12.70;94.20;;;;;;5025301;28;20178;-78
2023/05/14 08:57:37;;;;;;;1.92;1.90;;;12.70;94.50;;;;;;5030089;28;20172;-78
2023/05/14 09:00:13;;;;;;;1.83;1.75;;;12.70;93.80;;;;;;5031698;28;20241;-77
2023/05/14 09:02:39;;;;;;;2.70;1.98;;;12.70;94.50;;;;;;5030938;28;20184;-79
2023/05/14 09:05:06;;;;;;;2.38;2.17;;;12.70;94.20;;;;;;5030719;28;20195;-78
2023/05/14 09:07:32;;;;;;;2.40;2.25;;;12.80;94.10;;;;;;5029070;28;20180;-77
2023/05/14 09:09:58;;;;;;;2.00;1.90;;;12.80;94.20;;;;;;5030859;28;20203;-77
2023/05/14 09:12:25;;;;;;;1.70;1.70;;;12.80;94.00;;;;;;5029292;28;20661;-77
2023/05/14 09:14:50;;;;;;;1.77;1.65;;;12.80;93.90;;;;;;5030809;28;20181;-78
2023/05/14 09:17:17;;;;;;;2.78;2.25;;;12.90;93.60;;;;;;5028808;28;20577;-77
2023/05/14 09:19:47;;;;;;;1.80;1.77;;;12.90;93.90;;;;;;5028075;28;20251;-78
2023/05/14 09:22:15;;;;;;;2.38;2.28;;;13.00;94.10;;;;;;5027898;28;20196;-77
2023/05/14 09:24:41;;;;;;;3.03;1.88;;;13.00;93.90;;;;;;5028239;28;20567;-77
2023/05/14 09:27:09;;;;;;;1.77;1.77;;;13.00;94.00;;;;;;5028423;28;20593;-77
2023/05/14 09:29:36;;;;;;;1.80;1.73;;;13.10;93.30;;;;;;5027490;28;20180;-75
2023/05/14 09:32:04;;;;;;;1.85;1.75;;;13.10;93.30;;;;;;5023036;28;20180;-77
2023/05/14 09:34:36;;;;;;;2.22;2.13;;;13.10;92.90;;;;;;5021021;28;20275;-77
2023/05/14 09:37:06;;;;;;;2.08;1.90;;;13.10;92.90;;;;;;5026293;28;20196;-76
2023/05/14 09:39:35;;;;;;;2.85;1.77;;;13.10;93.60;;;;;;5024778;28;20215;-77
2023/05/14 09:42:03;;;;;;;2.10;2.00;;;13.10;93.50;;;;;;5027623;28;20200;-77
2023/05/14 09:44:28;;;;;;;2.63;2.42;;;13.10;92.80;;;;;;5027303;28;20571;-77
2023/05/14 09:46:54;;;;;;;2.15;2.03;;;13.00;93.50;;;;;;5026588;28;20187;-78
2023/05/14 09:49:21;;;;;;;1.83;1.67;;;13.00;92.90;;;;;;5026906;28;20270;-78
2023/05/14 09:51:48;;;;;;;2.35;1.83;;;13.00;92.80;;;;;;5028299;28;20648;-77
2023/05/14 09:54:14;;;;;;;2.33;2.13;;;13.00;93.10;;;;;;5022335;28;20185;-77
2023/05/14 09:56:40;;;;;;;2.35;2.17;;;13.00;93.00;;;;;;5027659;28;20177;-77
2023/05/14 09:59:06;;;;;;;2.08;2.08;;;13.00;93.40;;;;;;5027924;28;20250;-78
2023/05/14 10:01:32;;;;;;;1.85;1.85;;;13.00;93.20;;;;;;5026346;28;20193;-75
2023/05/14 10:03:58;;;;;;;2.30;2.20;;;13.00;93.30;;;;;;5028215;28;20180;-77
2023/05/14 10:06:30;;;;;;;2.75;2.55;;;13.00;93.30;;;;;;5027764;28;20223;-77
2023/05/14 10:09:00;;;;;;;2.13;2.03;;;13.00;93.20;;;;;;5017552;28;20268;-79
2023/05/14 10:11:31;;;;;;;2.00;1.90;;;13.00;93.60;;;;;;5020592;28;20195;-75
2023/05/14 10:14:02;;;;;;;2.47;2.25;;;12.90;93.30;;;;;;5024032;28;20214;-77
2023/05/14 10:16:32;;;;;;;2.25;2.15;;;12.90;93.00;;;;;;5030656;28;20200;-79
2023/05/14 10:19:07;;;;;;;1.90;1.90;;;12.80;93.70;;;;;;5028752;28;20200;-77
2023/05/14 10:21:35;;;;;;;2.10;2.00;;;12.80;93.20;;;;;;5026782;28;20176;-78
2023/05/14 10:24:03;;;;;;;2.35;2.25;;;12.80;93.50;;;;;;5028365;28;20204;-76
2023/05/14 10:26:30;;;;;;;2.47;2.30;;;12.70;93.90;;;;;;5027991;28;20188;-76
2023/05/14 10:28:57;;;;;;;1.90;1.80;;;12.70;94.10;;;;;;5028058;28;20848;-77
2023/05/14 10:31:50;;;;;;;2.30;2.20;;;12.70;93.80;;;;;;5028563;28;20188;-77
2023/05/14 10:34:39;;;;;;;2.05;1.95;;;12.70;93.60;;;;;;5031727;28;20180;-77
2023/05/14 10:37:24;;;;;;;2.38;2.28;;;12.70;93.00;;;;;;5027869;28;20251;-76
2023/05/14 10:39:53;;;;;;;3.80;2.53;;;12.60;93.90;;;;;;5023900;28;20208;-76
2023/05/14 10:42:27;;;;;;;3.42;1.83;;;12.60;93.90;;;;;;5024863;28;20632;-77
2023/05/14 10:45:01;;;;;;;2.03;1.92;;;12.60;94.00;;;;;;5030257;28;20199;-76
2023/05/14 10:47:28;;;;;;;2.38;2.28;;;12.60;94.20;;;;;;5030519;28;20692;-76
2023/05/14 10:49:57;;;;;;;2.20;2.10;;;12.60;94.10;;;;;;5030914;28;20942;-77
2023/05/14 10:52:23;;;;;;;2.38;2.20;;;12.60;95.00;;;;;;5028094;28;20725;-77
2023/05/14 10:54:49;;;;;;;2.15;2.05;;;12.70;95.40;;;;;;5030730;28;20172;-77
2023/05/14 10:57:17;;;;;;;2.45;2.35;;;12.80;94.60;;;;;;5030417;28;20188;-75
2023/05/14 10:59:43;;;;;;;2.35;2.15;;;12.90;94.80;;;;;;5027927;28;20599;-76
2023/05/14 11:02:30;;;;;;;2.72;2.50;;;12.90;94.90;;;;;;5028544;28;20187;-76
2023/05/14 11:05:03;;;;;;;2.25;2.15;;;12.90;95.10;;;;;;5027781;28;20571;-76
2023/05/14 11:07:31;;;;;;;2.97;1.90;;;12.90;95.10;;;;;;5028587;28;20291;-77
2023/05/14 11:10:01;;;;;;;2.15;2.15;;;13.00;94.80;;;;;;5026255;28;20241;-76
2023/05/14 11:12:27;;;;;;;2.08;2.00;;;13.10;94.60;;;;;;5023626;28;20184;-76
2023/05/14 11:14:56;;;;;;;2.42;2.33;;;13.10;94.00;;;;;;5032412;28;20175;-76
2023/05/14 11:17:24;;;;;;;3.42;2.05;;;13.20;93.60;;;;;;5026718;28;20180;-76
2023/05/14 11:19:49;;;;;;;2.50;2.40;;;13.20;93.70;;;;;;5026545;28;20204;-76
2023/05/14 11:22:15;;;;;;;2.58;2.17;;;13.30;93.50;;;;;;5026024;28;20180;-76
2023/05/14 11:24:40;;;;;;;2.75;2.55;;;13.40;93.50;;;;;;5029960;28;20646;-77
2023/05/14 11:27:08;;;;;;;2.10;2.03;;;13.40;93.20;;;;;;5028455;28;20213;-77
2023/05/14 11:29:35;;;;;;;1.77;1.73;;;13.40;93.40;;;;;;5024502;28;20180;-77
2023/05/14 11:32:02;;;;;;;1.80;1.70;;;13.40;93.10;;;;;;5025453;28;20650;-77
2023/05/14 11:34:27;;;;;;;2.33;2.17;;;13.50;92.70;;;;;;5028614;28;20674;-76
2023/05/14 11:36:53;;;;;;;2.08;2.08;;;13.50;92.60;;;;;;5029584;28;20326;-76
2023/05/14 11:39:19;;;;;;;1.98;1.88;;;13.40;92.90;;;;;;5027811;28;20216;-76
2023/05/14 11:41:45;;;;;;;2.33;1.90;;;13.40;93.40;;;;;;5028435;28;20662;-76
2023/05/14 11:44:10;;;;;;;2.10;2.00;;;13.40;93.40;;;;;;5029190;28;20241;-76
2023/05/14 11:46:36;;;;;;;2.53;1.95;;;13.40;93.40;;;;;;5027981;28;20910;-76
2023/05/14 11:49:08;;;;;;;2.22;2.13;;;13.40;93.30;;;;;;5029129;28;20200;-76
2023/05/14 11:51:35;;;;;;;2.13;2.03;;;13.50;93.20;;;;;;5029267;28;20673;-74
2023/05/14 11:54:02;;;;;;;1.98;1.88;;;13.50;93.30;;;;;;5024702;28;20188;-77
2023/05/14 11:56:28;;;;;;;1.83;1.83;;;13.60;92.80;;;;;;5030234;28;20805;-76
2023/05/14 11:58:57;;;;;;;2.63;2.42;;;13.60;92.60;;;;;;5025686;28;20172;-77
2023/05/14 12:01:23;;;;;;;1.65;1.55;;;13.70;92.20;;;;;;5028955;28;20191;-76
2023/05/14 12:03:49;;;;;;;2.00;1.90;;;13.80;92.10;;;;;;5027442;28;20256;-76
2023/05/14 12:06:15;;;;;;;1.50;1.50;;;13.80;92.50;;;;;;5025180;28;20259;-77
2023/05/14 12:08:40;;;;;;;2.00;2.00;;;13.90;92.90;;;;;;5027011;28;20263;-76
2023/05/14 12:11:08;;;;;;;2.13;2.03;;;14.10;92.50;;;;;;5032367;28;20216;-78
2023/05/14 12:13:35;;;;;;;1.63;1.63;;;14.20;91.70;;;;;;5027128;28;20638;-76
2023/05/14 12:16:01;;;;;;;2.10;2.05;;;14.40;91.70;;;;;;5028293;28;20191;-76
2023/05/14 12:18:31;;;;;;;2.22;2.13;;;14.60;91.10;;;;;;5028440;28;20187;-75
2023/05/14 12:21:04;;;;;;;2.53;2.42;;;14.70;90.70;;;;;;5027155;28;20204;-76
2023/05/14 12:23:31;;;;;;;1.63;1.63;;;14.90;89.90;;;;;;5028921;28;20255;-76
2023/05/14 12:26:07;;;;;;;2.83;2.22;;;15.00;89.40;;;;;;5028347;28;20559;-78
2023/05/14 12:28:35;;;;;;;1.80;1.80;;;15.10;89.00;;;;;;5022871;28;20186;-76
2023/05/14 12:31:01;;;;;;;1.67;1.67;;;15.20;89.20;;;;;;5027239;28;20188;-76
2023/05/14 12:33:26;;;;;;;2.30;2.03;;;15.30;88.60;;;;;;5027031;28;20208;-76
2023/05/14 12:35:53;;;;;;;2.05;2.05;;;15.30;87.80;;;;;;5028558;28;20184;-77
2023/05/14 12:38:19;;;;;;;2.47;2.38;;;15.40;88.30;;;;;;5028258;28;20250;-77
2023/05/14 12:40:44;;;;;;;2.33;2.22;;;15.40;88.10;;;;;;5026827;28;20650;-77
2023/05/14 12:43:10;;;;;;;3.95;2.38;;;15.40;87.90;;;;;;5028130;28;20181;-77
2023/05/14 12:45:36;;;;;;;2.10;2.10;;;15.30;87.80;;;;;;5029299;28;20188;-76
2023/05/14 12:48:02;;;;;;;2.33;2.22;;;15.30;86.90;;;;;;5029327;28;20191;-75